createdAt,value
2017-09-23T00:01:37.000Z,12.90
2017-09-23T00:04:03.617Z,12.13
2017-09-23T00:06:30.216Z,11.40
2017-09-23T00:08:56.846Z,11.77
2017-09-23T00:11:23.475Z,12.07
2017-09-23T00:13:50.092Z,12.20
2017-09-23T00:16:16.704Z,11.70
2017-09-23T00:18:43.351Z,13.30
2017-09-23T00:21:09.949Z,12.13
2017-09-23T00:23:36.544Z,11.60
2017-09-23T00:26:03.184Z,12.33
2017-09-23T00:28:29.801Z,12.27
2017-09-23T00:30:56.420Z,13.30
2017-09-23T00:33:23.022Z,13.70
2017-09-23T00:35:49.642Z,14.07
2017-09-23T00:38:16.268Z,14.57
2017-09-23T00:40:42.880Z,14.37
2017-09-23T00:43:09.484Z,13.20
2017-09-23T00:45:36.128Z,14.13
2017-09-23T00:48:02.761Z,13.37
2017-09-23T00:50:29.369Z,17.13
2017-09-23T00:52:55.996Z,13.83
2017-09-23T00:55:22.621Z,12.93
2017-09-23T00:57:49.232Z,13.30
2017-09-23T01:00:15.852Z,12.63
2017-09-23T01:02:42.457Z,13.23
2017-09-23T01:05:09.092Z,14.67
2017-09-23T01:07:35.713Z,13.60
2017-09-23T01:10:02.316Z,13.63
2017-09-23T01:12:28.959Z,14.83
2017-09-23T01:14:55.558Z,13.03
2017-09-23T01:17:22.185Z,13.40
2017-09-23T01:19:48.780Z,13.20
2017-09-23T01:22:15.410Z,12.50
2017-09-23T01:24:42.081Z,14.67
2017-09-23T01:27:08.681Z,13.23
2017-09-23T01:29:35.311Z,13.50
2017-09-23T01:32:01.954Z,14.87
2017-09-23T01:34:28.554Z,13.93
2017-09-23T01:36:55.163Z,14.83
2017-09-23T01:39:21.789Z,13.57
2017-09-23T01:41:48.389Z,12.00
2017-09-23T01:44:15.021Z,13.17
2017-09-23T01:46:41.638Z,14.30
2017-09-23T01:49:08.240Z,14.80
2017-09-23T01:51:34.874Z,13.00
2017-09-23T01:54:01.477Z,14.03
2017-09-23T01:56:28.106Z,13.60
2017-09-23T01:58:54.726Z,14.37
2017-09-23T02:01:21.331Z,13.80
2017-09-23T02:03:47.956Z,13.73
2017-09-23T02:06:14.559Z,12.70
2017-09-23T02:08:41.189Z,13.10
2017-09-23T02:11:07.791Z,12.00
2017-09-23T02:13:34.412Z,13.03
2017-09-23T02:16:01.027Z,11.97
2017-09-23T02:18:27.637Z,12.90
2017-09-23T02:20:54.277Z,13.17
2017-09-23T02:23:20.881Z,12.20
2017-09-23T02:25:47.487Z,11.70
2017-09-23T02:28:14.129Z,11.80
2017-09-23T02:30:40.738Z,12.40
2017-09-23T02:33:07.359Z,12.77
2017-09-23T02:35:33.993Z,12.50
2017-09-23T02:38:00.625Z,12.90
2017-09-23T02:40:27.262Z,11.40
2017-09-23T02:42:53.869Z,11.60
2017-09-23T02:45:20.503Z,11.17
2017-09-23T02:47:47.110Z,12.20
2017-09-23T02:50:13.743Z,11.70
2017-09-23T02:52:40.342Z,11.20
2017-09-23T02:55:06.974Z,11.23
2017-09-23T02:57:33.585Z,11.67
2017-09-23T03:00:00.229Z,11.73
2017-09-23T03:02:26.836Z,12.17
2017-09-23T03:04:53.449Z,12.60
2017-09-23T03:07:20.750Z,10.13
2017-09-23T03:09:47.409Z,11.37
2017-09-23T03:12:14.046Z,11.67
2017-09-23T03:14:40.669Z,12.50
2017-09-23T03:17:07.301Z,12.80
2017-09-23T03:19:33.908Z,12.33
2017-09-23T03:22:00.522Z,11.43
2017-09-23T03:24:27.157Z,12.43
2017-09-23T03:26:53.773Z,12.97
2017-09-23T03:29:20.401Z,14.43
2017-09-23T03:31:47.002Z,12.07
2017-09-23T03:34:13.648Z,12.50
2017-09-23T03:36:40.251Z,11.77
2017-09-23T03:39:06.861Z,12.00
2017-09-23T03:41:33.529Z,11.47
2017-09-23T03:44:00.137Z,11.57
2017-09-23T03:46:26.794Z,11.83
2017-09-23T03:48:53.433Z,12.27
2017-09-23T03:51:20.053Z,12.13
2017-09-23T03:53:46.670Z,12.17
2017-09-23T03:56:13.298Z,11.00
2017-09-23T03:58:39.921Z,11.57
2017-09-23T04:01:06.525Z,11.97
2017-09-23T04:03:33.152Z,12.63
2017-09-23T04:05:59.794Z,13.03
2017-09-23T04:08:26.410Z,12.63
2017-09-23T04:10:53.038Z,12.93
2017-09-23T04:13:19.651Z,12.17
2017-09-23T04:15:46.264Z,11.67
2017-09-23T04:18:12.893Z,10.87
2017-09-23T04:20:39.508Z,11.60
2017-09-23T04:23:06.118Z,11.17
2017-09-23T04:25:32.839Z,11.50
2017-09-23T04:27:59.434Z,11.60
2017-09-23T04:30:26.065Z,11.37
2017-09-23T04:32:52.682Z,12.73
2017-09-23T04:35:19.300Z,12.00
2017-09-23T04:37:45.940Z,10.87
2017-09-23T04:40:12.577Z,11.50
2017-09-23T04:42:39.181Z,11.53
2017-09-23T04:45:05.821Z,12.40
2017-09-23T04:47:32.469Z,12.23
2017-09-23T04:49:59.075Z,12.20
2017-09-23T04:52:25.701Z,12.50
2017-09-23T04:54:52.345Z,11.50
2017-09-23T04:57:18.958Z,13.30
2017-09-23T04:59:45.578Z,12.17
2017-09-23T05:02:12.207Z,11.50
2017-09-23T05:04:38.861Z,11.60
2017-09-23T05:07:05.469Z,12.80
2017-09-23T05:09:37.849Z,11.33
2017-09-23T05:12:04.447Z,11.80
2017-09-23T05:14:31.075Z,12.57
2017-09-23T05:16:57.714Z,12.00
2017-09-23T05:19:24.325Z,11.33
2017-09-23T05:21:50.946Z,14.00
2017-09-23T05:24:17.585Z,13.30
2017-09-23T05:26:44.193Z,12.97
2017-09-23T05:29:10.849Z,12.90
2017-09-23T05:31:37.458Z,12.87
2017-09-23T05:34:04.081Z,11.93
2017-09-23T05:36:30.716Z,11.90
2017-09-23T05:38:57.326Z,11.70
2017-09-23T05:41:23.979Z,11.57
2017-09-23T05:43:50.592Z,11.70
2017-09-23T05:46:17.213Z,10.90
2017-09-23T05:48:43.841Z,12.03
2017-09-23T05:51:10.437Z,10.27
2017-09-23T05:53:37.057Z,11.70
2017-09-23T05:56:03.664Z,11.70
2017-09-23T05:58:30.286Z,10.90
2017-09-23T06:00:56.893Z,12.13
2017-09-23T06:03:23.531Z,12.00
2017-09-23T06:05:50.134Z,11.53
2017-09-23T06:08:16.793Z,11.30
2017-09-23T06:10:43.404Z,10.37
2017-09-23T06:13:10.045Z,10.17
2017-09-23T06:15:36.667Z,11.73
2017-09-23T06:18:03.298Z,11.63
2017-09-23T06:20:29.933Z,10.70
2017-09-23T06:22:56.558Z,10.03
2017-09-23T06:25:23.166Z,12.70
2017-09-23T06:27:49.773Z,11.40
2017-09-23T06:30:16.429Z,11.07
2017-09-23T06:32:43.025Z,9.70
2017-09-23T06:35:09.626Z,10.60
2017-09-23T06:37:36.264Z,10.17
2017-09-23T06:40:02.888Z,10.83
2017-09-23T06:42:29.496Z,10.33
2017-09-23T06:44:56.155Z,9.90
2017-09-23T06:47:22.772Z,11.50
2017-09-23T06:49:49.381Z,10.70
2017-09-23T06:52:16.026Z,11.23
2017-09-23T06:54:42.638Z,10.20
2017-09-23T06:57:09.265Z,10.03
2017-09-23T06:59:35.874Z,11.23
2017-09-23T07:02:02.475Z,11.80
2017-09-23T07:04:29.134Z,10.23
2017-09-23T07:06:55.737Z,10.90
2017-09-23T07:09:22.346Z,9.80
2017-09-23T07:11:48.977Z,10.10
2017-09-23T07:14:15.582Z,9.67
2017-09-23T07:16:42.212Z,8.90
2017-09-23T07:19:08.837Z,9.73
2017-09-23T07:21:35.433Z,8.87
2017-09-23T07:24:02.084Z,10.07
2017-09-23T07:26:28.690Z,9.37
2017-09-23T07:28:55.317Z,10.17
2017-09-23T07:31:21.948Z,10.97
2017-09-23T07:33:48.582Z,13.37
2017-09-23T07:36:15.261Z,11.77
2017-09-23T07:38:41.929Z,12.53
2017-09-23T07:41:08.545Z,13.40
2017-09-23T07:43:35.174Z,13.53
2017-09-23T07:46:01.818Z,14.63
2017-09-23T07:48:28.441Z,15.90
2017-09-23T07:50:55.077Z,16.80
2017-09-23T07:53:21.716Z,17.10
2017-09-23T07:55:48.343Z,16.97
2017-09-23T07:58:15.005Z,19.70
2017-09-23T08:00:41.622Z,19.73
2017-09-23T08:03:08.257Z,20.77
2017-09-23T08:05:34.865Z,22.53
2017-09-23T08:08:01.509Z,21.03
2017-09-23T08:10:28.150Z,20.20
2017-09-23T08:12:54.753Z,19.80
2017-09-23T08:15:21.370Z,18.33
2017-09-23T08:17:47.992Z,19.00
2017-09-23T08:20:14.704Z,18.00
2017-09-23T08:22:41.343Z,19.20
2017-09-23T08:25:07.943Z,20.10
2017-09-23T08:27:34.582Z,19.70
2017-09-23T08:30:01.201Z,19.60
2017-09-23T08:32:27.806Z,19.30
2017-09-23T08:34:54.441Z,18.33
2017-09-23T08:37:21.058Z,17.57
2017-09-23T08:39:47.661Z,20.40
2017-09-23T08:42:14.293Z,18.40
2017-09-23T08:44:40.912Z,19.17
2017-09-23T08:47:07.549Z,19.67
2017-09-23T08:49:34.156Z,20.23
2017-09-23T08:52:00.810Z,19.00
2017-09-23T08:54:27.449Z,19.73
2017-09-23T08:56:54.060Z,17.13
2017-09-23T08:59:20.684Z,17.87
2017-09-23T09:01:47.292Z,16.63
2017-09-23T09:04:13.909Z,15.17
2017-09-23T09:06:40.513Z,15.07
2017-09-23T09:09:07.150Z,16.47
2017-09-23T09:11:33.759Z,14.90
2017-09-23T09:14:00.367Z,14.63
2017-09-23T09:16:27.340Z,15.37
2017-09-23T09:18:53.945Z,17.70
2017-09-23T09:21:20.570Z,17.17
2017-09-23T09:23:47.208Z,17.03
2017-09-23T09:26:13.816Z,15.20
2017-09-23T09:28:40.434Z,15.73
2017-09-23T09:31:07.053Z,15.37
2017-09-23T09:33:33.659Z,13.73
2017-09-23T09:36:00.277Z,14.97
2017-09-23T09:38:26.916Z,14.97
2017-09-23T09:40:53.541Z,13.83
2017-09-23T09:43:20.139Z,13.83
2017-09-23T09:45:46.809Z,15.90
2017-09-23T09:48:13.405Z,13.83
2017-09-23T09:50:40.005Z,14.50
2017-09-23T09:53:06.641Z,14.83
2017-09-23T09:55:33.284Z,14.30
2017-09-23T09:57:59.921Z,13.03
2017-09-23T10:00:26.542Z,15.87
2017-09-23T10:02:53.149Z,13.43
2017-09-23T10:05:19.776Z,15.17
2017-09-23T10:07:46.406Z,15.50
2017-09-23T10:10:13.043Z,15.37
2017-09-23T10:12:45.433Z,16.37
2017-09-23T10:15:12.058Z,15.73
2017-09-23T10:17:38.685Z,15.70
2017-09-23T10:20:05.292Z,13.83
2017-09-23T10:22:31.933Z,15.23
2017-09-23T10:24:58.545Z,14.73
2017-09-23T10:27:25.174Z,15.03
2017-09-23T10:29:51.777Z,15.97
2017-09-23T10:32:18.413Z,15.47
2017-09-23T10:34:45.038Z,14.20
2017-09-23T10:37:11.670Z,13.73
2017-09-23T10:39:38.293Z,14.97
2017-09-23T10:42:04.906Z,15.30
2017-09-23T10:44:31.526Z,12.43
2017-09-23T10:46:58.130Z,11.10
2017-09-23T10:49:24.802Z,12.77
2017-09-23T10:51:51.406Z,12.47
2017-09-23T10:54:18.010Z,13.50
2017-09-23T10:56:44.647Z,13.83
2017-09-23T10:59:11.253Z,12.90
2017-09-23T11:01:37.870Z,12.77
2017-09-23T11:04:04.508Z,12.33
2017-09-23T11:06:31.121Z,13.37
2017-09-23T11:08:57.729Z,13.20
2017-09-23T11:11:24.356Z,11.67
2017-09-23T11:13:50.967Z,12.57
2017-09-23T11:16:17.591Z,13.00
2017-09-23T11:18:44.215Z,12.40
2017-09-23T11:21:10.849Z,11.10
2017-09-23T11:23:37.481Z,11.80
2017-09-23T11:26:04.100Z,12.33
2017-09-23T11:28:30.708Z,11.50
2017-09-23T11:30:57.329Z,10.10
2017-09-23T11:33:23.965Z,11.03
2017-09-23T11:35:50.602Z,11.10
2017-09-23T11:38:17.221Z,11.20
2017-09-23T11:40:43.845Z,12.13
2017-09-23T11:43:10.553Z,12.27
2017-09-23T11:45:37.164Z,12.23
2017-09-23T11:48:03.794Z,12.20
2017-09-23T11:50:30.421Z,12.30
2017-09-23T11:52:57.040Z,12.90
2017-09-23T11:55:23.662Z,13.90
2017-09-23T11:57:50.281Z,14.37
2017-09-23T12:00:16.907Z,15.10
2017-09-23T12:02:43.598Z,14.70
2017-09-23T12:05:10.313Z,12.90
2017-09-23T12:07:36.910Z,13.27
2017-09-23T12:10:03.525Z,13.00
2017-09-23T12:12:30.165Z,14.23
2017-09-23T12:14:56.768Z,14.87
2017-09-23T12:17:23.373Z,12.87
2017-09-23T12:19:49.995Z,14.27
2017-09-23T12:22:16.620Z,12.97
2017-09-23T12:24:43.241Z,12.00
2017-09-23T12:27:09.853Z,13.60
2017-09-23T12:29:36.474Z,13.77
2017-09-23T12:32:03.118Z,12.40
2017-09-23T12:34:29.723Z,11.67
2017-09-23T12:36:56.329Z,12.40
2017-09-23T12:39:22.966Z,12.53
2017-09-23T12:41:49.587Z,13.60
2017-09-23T12:44:16.193Z,15.93
2017-09-23T12:46:42.835Z,13.73
2017-09-23T12:49:09.503Z,12.50
2017-09-23T12:51:36.112Z,11.30
2017-09-23T12:54:02.721Z,13.47
2017-09-23T12:56:29.390Z,14.67
2017-09-23T12:58:56.101Z,13.47
2017-09-23T13:01:22.702Z,13.23
2017-09-23T13:03:49.343Z,11.20
2017-09-23T13:06:15.945Z,10.30
2017-09-23T13:08:42.972Z,11.67
2017-09-23T13:11:09.597Z,12.30
2017-09-23T13:13:36.219Z,11.60
2017-09-23T13:16:02.861Z,10.80
2017-09-23T13:18:29.514Z,11.77
2017-09-23T13:20:56.155Z,11.57
2017-09-23T13:23:22.752Z,11.23
2017-09-23T13:25:49.367Z,12.30
2017-09-23T13:28:15.985Z,11.17
2017-09-23T13:30:42.591Z,10.50
2017-09-23T13:33:09.244Z,11.23
2017-09-23T13:35:35.845Z,10.87
2017-09-23T13:38:02.477Z,10.87
2017-09-23T13:40:29.159Z,12.00
2017-09-23T13:42:55.761Z,10.90
2017-09-23T13:45:22.361Z,12.00
2017-09-23T13:47:49.035Z,13.10
2017-09-23T13:50:15.637Z,11.63
2017-09-23T13:52:42.249Z,12.77
2017-09-23T13:55:08.886Z,11.50
2017-09-23T13:57:35.485Z,11.53
2017-09-23T14:00:02.122Z,13.30
2017-09-23T14:02:28.733Z,11.33
2017-09-23T14:04:55.374Z,12.10
2017-09-23T14:07:21.978Z,13.40
2017-09-23T14:09:48.674Z,13.77
2017-09-23T14:12:15.297Z,11.60
2017-09-23T14:14:41.897Z,12.40
2017-09-23T14:17:08.530Z,11.33
2017-09-23T14:19:35.154Z,10.50
2017-09-23T14:22:01.825Z,11.60
2017-09-23T14:24:28.435Z,10.20
2017-09-23T14:26:55.071Z,10.70
2017-09-23T14:29:21.694Z,12.10
2017-09-23T14:31:48.295Z,11.53
2017-09-23T14:34:14.924Z,12.93
2017-09-23T14:36:41.526Z,9.90
2017-09-23T14:39:08.166Z,10.63
2017-09-23T14:41:34.766Z,10.43
2017-09-23T14:44:01.417Z,10.67
2017-09-23T14:46:28.044Z,10.67
2017-09-23T14:48:54.669Z,9.60
2017-09-23T14:51:21.338Z,9.77
2017-09-23T14:53:47.945Z,10.17
2017-09-23T14:56:14.590Z,11.90
2017-09-23T14:58:41.200Z,12.40
2017-09-23T15:01:07.813Z,11.17
2017-09-23T15:03:34.447Z,11.73
2017-09-23T15:06:01.073Z,10.80
2017-09-23T15:08:27.672Z,11.10
2017-09-23T15:10:54.305Z,9.87
2017-09-23T15:13:20.897Z,10.30
2017-09-23T15:15:47.532Z,12.17
2017-09-23T15:18:14.161Z,10.10
2017-09-23T15:20:40.773Z,9.57
2017-09-23T15:23:07.389Z,10.10
2017-09-23T15:25:34.010Z,12.47
2017-09-23T15:28:00.633Z,10.53
2017-09-23T15:30:27.235Z,10.70
2017-09-23T15:32:53.840Z,10.43
2017-09-23T15:35:20.760Z,9.83
2017-09-23T15:37:47.388Z,9.83
2017-09-23T15:40:14.015Z,10.07
2017-09-23T15:42:40.644Z,9.70
2017-09-23T15:45:07.265Z,9.50
2017-09-23T15:47:33.887Z,10.63
2017-09-23T15:50:00.509Z,10.87
2017-09-23T15:52:27.104Z,9.93
2017-09-23T15:54:53.769Z,10.80
2017-09-23T15:57:20.488Z,10.10
2017-09-23T15:59:47.105Z,10.77
2017-09-23T16:02:13.744Z,10.20
2017-09-23T16:04:40.350Z,13.43
2017-09-23T16:07:06.945Z,12.43
2017-09-23T16:09:33.575Z,13.30
2017-09-23T16:12:00.181Z,10.10
2017-09-23T16:14:26.816Z,11.80
2017-09-23T16:16:53.457Z,14.00
2017-09-23T16:19:20.065Z,12.20
2017-09-23T16:21:46.688Z,12.40
2017-09-23T16:24:13.299Z,13.07
2017-09-23T16:26:39.949Z,12.47
2017-09-23T16:29:06.565Z,12.77
2017-09-23T16:31:33.202Z,11.63
2017-09-23T16:33:59.834Z,12.93
2017-09-23T16:36:26.498Z,12.20
2017-09-23T16:38:53.109Z,12.27
2017-09-23T16:41:19.744Z,9.70
2017-09-23T16:43:46.336Z,9.43
2017-09-23T16:46:12.984Z,10.87
2017-09-23T16:48:39.585Z,9.70
2017-09-23T16:51:07.065Z,8.90
2017-09-23T16:53:33.697Z,9.40
2017-09-23T16:56:00.306Z,9.30
2017-09-23T16:58:26.902Z,8.40
2017-09-23T17:00:53.536Z,9.63
2017-09-23T17:03:20.142Z,9.00
2017-09-23T17:05:46.774Z,7.90
2017-09-23T17:08:13.429Z,8.80
2017-09-23T17:10:40.040Z,8.67
2017-09-23T17:13:06.668Z,9.60
2017-09-23T17:15:33.310Z,9.63
2017-09-23T17:17:59.933Z,9.20
2017-09-23T17:20:26.568Z,9.33
2017-09-23T17:22:53.198Z,11.07
2017-09-23T17:25:19.842Z,13.03
2017-09-23T17:27:46.490Z,11.07
2017-09-23T17:30:13.705Z,11.23
2017-09-23T17:32:40.353Z,11.63
2017-09-23T17:35:06.965Z,12.07
2017-09-23T17:37:33.601Z,13.17
2017-09-23T17:40:00.241Z,12.90
2017-09-23T17:42:26.856Z,13.80
2017-09-23T17:44:53.498Z,18.13
2017-09-23T17:47:20.172Z,13.97
2017-09-23T17:49:46.810Z,14.00
2017-09-23T17:52:13.426Z,14.27
2017-09-23T17:54:40.102Z,15.30
2017-09-23T17:57:06.738Z,15.67
2017-09-23T17:59:33.359Z,15.80
2017-09-23T18:02:00.008Z,15.03
2017-09-23T18:04:26.649Z,16.10
2017-09-23T18:06:53.296Z,15.50
2017-09-23T18:09:20.025Z,14.80
2017-09-23T18:11:46.643Z,17.50
2017-09-23T18:14:13.258Z,17.00
2017-09-23T18:16:39.930Z,16.60
2017-09-23T18:19:06.554Z,17.87
2017-09-23T18:21:33.173Z,18.47
2017-09-23T18:23:59.883Z,17.47
2017-09-23T18:26:26.523Z,18.53
2017-09-23T18:28:53.142Z,19.17
2017-09-23T18:31:19.753Z,18.20
2017-09-23T18:33:46.402Z,18.73
2017-09-23T18:36:13.049Z,18.97
2017-09-23T18:38:39.655Z,20.43
2017-09-23T18:41:06.302Z,18.87
2017-09-23T18:43:32.932Z,19.30
2017-09-23T18:45:59.578Z,20.80
2017-09-23T18:48:26.209Z,20.47
2017-09-23T18:50:52.849Z,20.47
2017-09-23T18:53:19.457Z,22.17
2017-09-23T18:55:46.069Z,21.83
2017-09-23T18:58:12.696Z,20.93
2017-09-23T19:00:39.310Z,19.50
2017-09-23T19:03:05.938Z,17.80
2017-09-23T19:05:32.550Z,19.17
2017-09-23T19:07:59.201Z,18.67
2017-09-23T19:10:25.817Z,17.83
2017-09-23T19:12:53.154Z,19.07
2017-09-23T19:15:19.802Z,18.20
2017-09-23T19:17:46.419Z,18.10
2017-09-23T19:20:13.065Z,19.00
2017-09-23T19:22:39.681Z,19.43
2017-09-23T19:25:06.343Z,19.97
2017-09-23T19:27:32.966Z,17.73
2017-09-23T19:29:59.566Z,18.93
2017-09-23T19:32:26.206Z,18.03
2017-09-23T19:34:52.804Z,20.27
2017-09-23T19:37:19.437Z,19.57
2017-09-23T19:39:46.093Z,18.50
2017-09-23T19:42:12.705Z,19.13
2017-09-23T19:44:39.314Z,21.33
2017-09-23T19:47:05.937Z,18.70
2017-09-23T19:49:32.578Z,19.70
2017-09-23T19:51:59.205Z,19.80
2017-09-23T19:54:25.837Z,20.33
2017-09-23T19:56:52.458Z,20.03
2017-09-23T19:59:19.065Z,20.37
2017-09-23T20:01:45.693Z,19.00
2017-09-23T20:04:12.300Z,20.50
2017-09-23T20:06:38.921Z,22.47
2017-09-23T20:09:05.557Z,23.20
2017-09-23T20:11:32.160Z,21.17
2017-09-23T20:13:58.769Z,23.13
2017-09-23T20:16:25.412Z,21.27
2017-09-23T20:18:52.010Z,21.50
2017-09-23T20:21:18.661Z,20.47
2017-09-23T20:23:45.272Z,21.20
2017-09-23T20:26:11.888Z,20.20
2017-09-23T20:28:38.532Z,21.10
2017-09-23T20:31:05.161Z,21.37
2017-09-23T20:33:31.784Z,21.43
2017-09-23T20:35:58.393Z,22.20
2017-09-23T20:38:25.031Z,23.13
2017-09-23T20:40:51.634Z,22.30
2017-09-23T20:43:18.246Z,22.17
2017-09-23T20:45:44.869Z,22.83
2017-09-23T20:48:11.485Z,22.23
2017-09-23T20:50:38.113Z,21.67
2017-09-23T20:53:04.754Z,20.67
2017-09-23T20:55:31.383Z,22.20
2017-09-23T20:57:57.990Z,20.20
2017-09-23T21:00:24.626Z,21.33
2017-09-23T21:02:51.244Z,21.60
2017-09-23T21:05:17.877Z,23.37
2017-09-23T21:07:44.506Z,21.77
2017-09-23T21:10:11.115Z,20.17
2017-09-23T21:12:37.728Z,20.40
2017-09-23T21:15:04.357Z,22.73
2017-09-23T21:17:30.985Z,21.17
2017-09-23T21:19:57.626Z,21.07
2017-09-23T21:22:24.228Z,21.13
2017-09-23T21:24:50.838Z,22.13
2017-09-23T21:27:17.461Z,21.40
2017-09-23T21:29:44.073Z,23.40
2017-09-23T21:32:10.696Z,21.70
2017-09-23T21:34:37.306Z,23.17
2017-09-23T21:37:03.940Z,23.37
2017-09-23T21:39:30.566Z,21.87
2017-09-23T21:41:57.197Z,22.90
2017-09-23T21:44:23.843Z,21.57
2017-09-23T21:46:50.476Z,21.30
2017-09-23T21:49:17.082Z,23.90
2017-09-23T21:51:43.717Z,24.70
2017-09-23T21:54:10.329Z,26.03
2017-09-23T21:56:36.979Z,25.80
2017-09-23T21:59:03.580Z,25.80
2017-09-23T22:01:30.190Z,24.03
2017-09-23T22:03:56.812Z,24.07
2017-09-23T22:06:23.449Z,25.57
2017-09-23T22:08:50.066Z,25.80
2017-09-23T22:11:16.670Z,27.63
2017-09-23T22:13:43.294Z,26.13
2017-09-23T22:16:09.906Z,28.37
2017-09-23T22:18:36.529Z,27.17
2017-09-23T22:21:03.141Z,27.67
2017-09-23T22:23:29.790Z,25.77
2017-09-23T22:25:56.408Z,29.30
2017-09-23T22:28:23.013Z,28.10
2017-09-23T22:30:49.636Z,27.10
2017-09-23T22:33:16.281Z,27.50
2017-09-23T22:35:42.885Z,30.10
2017-09-23T22:38:09.489Z,31.07
2017-09-23T22:40:36.127Z,29.10
2017-09-23T22:43:02.731Z,23.13
2017-09-23T22:45:29.346Z,24.77
2017-09-23T22:47:55.960Z,23.97
2017-09-23T22:50:22.565Z,23.87
2017-09-23T22:52:49.201Z,23.60
2017-09-23T22:55:15.813Z,21.90
2017-09-23T22:57:42.461Z,21.80
2017-09-23T23:00:09.073Z,21.57
2017-09-23T23:02:35.677Z,20.30
2017-09-23T23:05:02.325Z,22.03
2017-09-23T23:07:28.921Z,19.90
2017-09-23T23:09:55.592Z,23.43
2017-09-23T23:12:22.186Z,21.17
2017-09-23T23:14:48.823Z,22.90
2017-09-23T23:17:15.456Z,21.37
2017-09-23T23:19:42.092Z,22.00
2017-09-23T23:22:08.713Z,21.10
2017-09-23T23:24:35.321Z,20.80
2017-09-23T23:27:01.946Z,21.47
2017-09-23T23:29:28.548Z,22.53
2017-09-23T23:31:55.189Z,21.60
2017-09-23T23:34:21.789Z,24.27
2017-09-23T23:36:48.403Z,24.47
2017-09-23T23:39:15.026Z,21.53
2017-09-23T23:41:41.640Z,21.97
2017-09-23T23:44:08.277Z,22.27
2017-09-23T23:46:34.909Z,23.77
2017-09-23T23:49:01.537Z,21.63
2017-09-23T23:51:28.177Z,22.70
2017-09-23T23:53:54.789Z,23.63
2017-09-23T23:56:21.403Z,22.63
2017-09-23T23:58:48.029Z,24.10
